createdAt,value
2018-06-29T00:00:08.030Z,72.30
2018-06-29T00:02:36.845Z,73.20
2018-06-29T00:05:06.476Z,73.80
2018-06-29T00:07:35.170Z,74.10
2018-06-29T00:10:03.965Z,75.70
2018-06-29T00:12:32.566Z,75.40
2018-06-29T00:15:01.217Z,76.50
2018-06-29T00:17:29.849Z,76.20
2018-06-29T00:19:58.492Z,77.50
2018-06-29T00:22:27.160Z,77.70
2018-06-29T00:24:55.820Z,77.40
2018-06-29T00:27:24.475Z,77.90
2018-06-29T00:29:53.116Z,78.50
2018-06-29T00:32:21.808Z,79.10
2018-06-29T00:34:50.490Z,79.40
2018-06-29T00:37:19.110Z,79.60
2018-06-29T00:39:47.806Z,79.40
2018-06-29T00:42:16.434Z,79.40
2018-06-29T00:44:45.068Z,79.80
2018-06-29T00:47:13.739Z,79.90
2018-06-29T00:49:42.366Z,80.40
2018-06-29T00:52:11.047Z,80.60
2018-06-29T00:54:39.782Z,81.00
2018-06-29T00:57:08.462Z,81.20
2018-06-29T00:59:37.214Z,81.40
2018-06-29T01:02:05.907Z,81.80
2018-06-29T01:04:34.557Z,82.10
2018-06-29T01:07:03.236Z,82.40
2018-06-29T01:09:31.883Z,82.80
2018-06-29T01:12:00.562Z,83.20
2018-06-29T01:14:29.201Z,83.50
2018-06-29T01:16:57.859Z,83.60
2018-06-29T01:19:26.540Z,83.20
2018-06-29T01:21:55.260Z,83.90
2018-06-29T01:24:23.911Z,84.10
2018-06-29T01:26:52.573Z,84.40
2018-06-29T01:29:21.294Z,84.80
2018-06-29T01:31:49.954Z,85.40
2018-06-29T01:34:18.573Z,84.70
2018-06-29T01:36:47.252Z,84.80
2018-06-29T01:39:15.882Z,85.10
2018-06-29T01:41:44.569Z,85.10
2018-06-29T01:44:13.315Z,85.20
2018-06-29T01:46:42.003Z,85.30
2018-06-29T01:49:10.637Z,85.60
2018-06-29T01:51:39.363Z,85.50
2018-06-29T01:54:08.021Z,85.80
2018-06-29T01:56:36.817Z,86.00
2018-06-29T01:59:05.445Z,86.40
2018-06-29T02:01:34.091Z,86.40
2018-06-29T02:04:02.767Z,86.50
2018-06-29T02:06:31.406Z,86.90
2018-06-29T02:09:00.047Z,87.30
2018-06-29T02:11:28.712Z,87.10
2018-06-29T02:13:57.356Z,87.40
2018-06-29T02:16:25.952Z,87.20
2018-06-29T02:18:54.604Z,86.90
2018-06-29T02:21:23.257Z,87.30
2018-06-29T02:23:51.863Z,87.40
2018-06-29T02:26:20.498Z,87.90
2018-06-29T02:28:49.126Z,87.70
2018-06-29T02:31:17.763Z,87.60
2018-06-29T02:33:46.367Z,88.00
2018-06-29T02:36:14.972Z,88.70
2018-06-29T02:38:43.685Z,89.10
2018-06-29T02:41:12.289Z,89.40
2018-06-29T02:43:40.918Z,89.20
2018-06-29T02:46:09.539Z,89.10
2018-06-29T02:48:38.285Z,88.50
2018-06-29T02:51:06.898Z,88.10
2018-06-29T02:53:35.501Z,88.20
2018-06-29T02:56:04.143Z,88.30
2018-06-29T02:58:32.764Z,88.40
2018-06-29T03:01:01.414Z,88.30
2018-06-29T03:03:30.054Z,88.40
2018-06-29T03:05:58.699Z,88.80
2018-06-29T03:08:27.351Z,89.00
2018-06-29T03:10:56.028Z,89.20
2018-06-29T03:13:24.667Z,89.20
2018-06-29T03:15:53.358Z,88.90
2018-06-29T03:18:21.986Z,88.70
2018-06-29T03:20:50.662Z,88.70
2018-06-29T03:23:19.334Z,88.60
2018-06-29T03:25:48.101Z,88.70
2018-06-29T03:28:16.738Z,88.70
2018-06-29T03:30:45.616Z,89.10
2018-06-29T03:33:14.265Z,88.80
2018-06-29T03:35:42.955Z,88.50
2018-06-29T03:38:11.662Z,88.40
2018-06-29T03:40:40.500Z,88.60
2018-06-29T03:43:09.111Z,88.60
2018-06-29T03:45:37.767Z,89.00
2018-06-29T03:48:06.438Z,89.40
2018-06-29T03:50:35.097Z,89.50
2018-06-29T03:53:03.781Z,89.40
2018-06-29T03:55:32.486Z,89.10
2018-06-29T03:58:01.130Z,89.10
2018-06-29T04:00:29.848Z,89.40
2018-06-29T04:02:58.526Z,89.40
2018-06-29T04:05:27.186Z,89.20
2018-06-29T04:07:55.816Z,89.20
2018-06-29T04:10:24.497Z,88.90
2018-06-29T04:12:53.184Z,88.70
2018-06-29T04:15:21.816Z,88.60
2018-06-29T04:17:50.453Z,88.50
2018-06-29T04:20:19.046Z,88.30
2018-06-29T04:22:47.902Z,88.30
2018-06-29T04:25:16.584Z,88.90
2018-06-29T04:27:45.219Z,88.60
2018-06-29T04:30:13.854Z,88.50
2018-06-29T04:32:42.557Z,87.90
2018-06-29T04:35:11.113Z,87.60
2018-06-29T04:37:39.950Z,88.10
2018-06-29T04:40:08.643Z,88.60
2018-06-29T04:42:37.384Z,87.50
2018-06-29T04:45:06.071Z,87.70
2018-06-29T04:47:34.720Z,87.50
2018-06-29T04:50:03.396Z,87.40
2018-06-29T04:52:32.125Z,86.90
2018-06-29T04:55:00.741Z,86.30
2018-06-29T04:57:29.505Z,85.60
2018-06-29T04:59:58.096Z,84.60
2018-06-29T05:02:26.739Z,84.90
2018-06-29T05:04:55.346Z,84.70
2018-06-29T05:07:23.943Z,84.70
2018-06-29T05:09:52.712Z,83.90
2018-06-29T05:12:21.342Z,84.20
2018-06-29T05:14:49.935Z,84.40
2018-06-29T05:17:18.570Z,82.20
2018-06-29T05:19:47.231Z,80.30
2018-06-29T05:22:15.869Z,79.60
2018-06-29T05:24:44.479Z,78.40
2018-06-29T05:27:13.669Z,74.90
2018-06-29T05:29:42.356Z,65.90
2018-06-29T05:32:11.082Z,56.60
2018-06-29T05:34:40.013Z,48.30
2018-06-29T05:37:08.732Z,42.40
2018-06-29T05:39:37.401Z,39.50
2018-06-29T05:42:06.058Z,35.00
2018-06-29T05:44:34.663Z,33.80
2018-06-29T05:47:03.347Z,33.20
2018-06-29T05:49:31.991Z,30.70
2018-06-29T05:52:00.580Z,30.30
2018-06-29T05:54:29.223Z,29.90
2018-06-29T05:56:57.841Z,29.60
2018-06-29T05:59:26.473Z,29.30
2018-06-29T06:01:55.224Z,29.60
2018-06-29T06:04:23.827Z,29.30
2018-06-29T06:06:52.459Z,28.80
2018-06-29T06:09:21.094Z,28.70
2018-06-29T06:11:49.691Z,29.00
2018-06-29T06:14:18.409Z,28.70
2018-06-29T06:16:47.020Z,27.40
2018-06-29T06:19:26.836Z,27.90
2018-06-29T06:21:55.563Z,28.40
2018-06-29T06:24:24.143Z,28.60
2018-06-29T06:26:52.997Z,27.50
2018-06-29T06:29:21.584Z,28.20
2018-06-29T06:31:50.238Z,28.20
2018-06-29T06:34:18.842Z,27.70
2018-06-29T06:36:47.571Z,27.10
2018-06-29T06:39:16.201Z,27.20
2018-06-29T06:41:44.910Z,27.70
2018-06-29T06:44:13.456Z,27.30
2018-06-29T06:46:42.096Z,27.90
2018-06-29T06:49:10.686Z,27.70
2018-06-29T06:51:39.328Z,29.00
2018-06-29T06:54:07.965Z,28.80
2018-06-29T06:56:36.564Z,29.20
2018-06-29T06:59:05.170Z,29.50
2018-06-29T07:01:33.859Z,29.30
2018-06-29T07:04:02.501Z,29.90
2018-06-29T07:06:31.142Z,29.60
2018-06-29T07:08:59.768Z,29.90
2018-06-29T07:11:28.410Z,32.00
2018-06-29T07:13:57.870Z,31.40
2018-06-29T07:16:26.506Z,32.70
2018-06-29T07:18:55.107Z,32.20
2018-06-29T07:21:24.317Z,34.10
2018-06-29T07:23:53.226Z,34.20
2018-06-29T07:26:22.022Z,33.70
2018-06-29T07:28:50.789Z,32.70
2018-06-29T07:33:01.670Z,34.00
2018-06-29T07:35:30.344Z,35.80
2018-06-29T07:37:59.087Z,34.20
2018-06-29T07:40:28.072Z,35.00
2018-06-29T07:42:56.993Z,34.20
2018-06-29T07:45:25.957Z,35.10
2018-06-29T07:47:54.837Z,34.20
2018-06-29T07:50:23.453Z,33.80
2018-06-29T07:52:52.437Z,34.40
2018-06-29T07:55:21.322Z,33.10
2018-06-29T07:57:50.060Z,35.00
2018-06-29T08:00:18.950Z,33.80
2018-06-29T08:02:47.886Z,32.40
2018-06-29T08:05:16.558Z,34.40
2018-06-29T08:07:45.178Z,34.90
2018-06-29T08:10:13.862Z,34.90
2018-06-29T08:12:42.495Z,33.10
2018-06-29T08:15:11.217Z,33.10
2018-06-29T08:17:40.112Z,32.90
2018-06-29T08:20:08.807Z,32.30
2018-06-29T08:22:37.508Z,32.20
2018-06-29T08:25:13.093Z,33.30
2018-06-29T08:27:42.213Z,31.70
2018-06-29T08:30:12.018Z,32.20
2018-06-29T08:32:40.694Z,31.90
2018-06-29T08:35:10.514Z,30.80
2018-06-29T08:37:39.835Z,29.60
2018-06-29T08:40:09.723Z,30.30
2018-06-29T08:42:38.503Z,31.00
2018-06-29T08:45:08.401Z,31.10
2018-06-29T08:47:37.154Z,31.50
2018-06-29T08:50:05.823Z,29.90
2018-06-29T08:52:34.514Z,30.70
2018-06-29T08:55:03.202Z,28.30
2018-06-29T08:57:31.863Z,29.00
2018-06-29T09:00:00.604Z,28.10
2018-06-29T09:02:29.259Z,27.70
2018-06-29T09:04:58.041Z,30.20
2018-06-29T09:07:26.704Z,28.60
2018-06-29T09:09:55.727Z,28.10
2018-06-29T09:12:24.444Z,26.80
2018-06-29T09:14:53.173Z,29.10
2018-06-29T09:17:21.823Z,27.40
2018-06-29T09:20:46.208Z,24.50
2018-06-29T09:23:14.899Z,25.70
2018-06-29T09:25:43.596Z,25.40
2018-06-29T09:28:12.253Z,25.40
2018-06-29T09:30:40.927Z,25.70
2018-06-29T09:33:09.620Z,27.10
2018-06-29T09:35:38.326Z,26.70
2018-06-29T09:38:07.048Z,26.40
2018-06-29T09:40:35.698Z,25.40
2018-06-29T09:43:04.382Z,26.50
2018-06-29T09:45:33.022Z,26.10
2018-06-29T09:48:01.735Z,26.40
2018-06-29T09:50:30.370Z,25.60
2018-06-29T09:52:59.046Z,26.50
2018-06-29T09:55:27.710Z,25.90
2018-06-29T09:57:56.615Z,24.30
2018-06-29T10:00:31.786Z,24.70
2018-06-29T10:03:01.005Z,23.90
2018-06-29T10:05:30.090Z,24.20
2018-06-29T10:07:58.738Z,23.80
2018-06-29T10:10:27.486Z,23.10
2018-06-29T10:12:56.182Z,24.50
2018-06-29T10:15:24.834Z,23.90
2018-06-29T10:17:53.463Z,23.70
2018-06-29T10:20:22.165Z,24.30
2018-06-29T10:22:50.866Z,22.40
2018-06-29T10:25:19.763Z,23.40
2018-06-29T10:27:48.330Z,23.70
2018-06-29T10:30:17.006Z,23.70
2018-06-29T10:32:45.691Z,24.20
2018-06-29T10:35:14.361Z,24.30
2018-06-29T10:37:43.001Z,24.60
2018-06-29T10:40:11.723Z,23.20
2018-06-29T10:42:40.409Z,23.50
2018-06-29T10:45:09.045Z,23.10
2018-06-29T10:47:37.762Z,24.30
2018-06-29T10:50:06.470Z,24.60
2018-06-29T10:52:35.241Z,24.00
2018-06-29T10:55:03.936Z,24.70
2018-06-29T10:57:32.581Z,24.80
2018-06-29T11:00:01.242Z,25.40
2018-06-29T11:02:30.340Z,26.10
2018-06-29T11:04:59.085Z,28.00
2018-06-29T11:07:27.726Z,28.60
2018-06-29T11:09:56.873Z,28.00
2018-06-29T11:12:25.550Z,29.10
2018-06-29T11:14:54.227Z,28.80
2018-06-29T11:17:22.905Z,30.50
2018-06-29T11:19:51.568Z,28.90
2018-06-29T11:22:20.238Z,30.00
2018-06-29T11:24:48.911Z,30.80
2018-06-29T11:27:17.590Z,30.30
2018-06-29T11:29:46.562Z,29.80
2018-06-29T11:32:15.246Z,29.40
2018-06-29T11:34:43.925Z,31.10
2018-06-29T11:37:12.583Z,30.60
2018-06-29T11:39:41.258Z,31.30
2018-06-29T11:42:09.958Z,30.20
2018-06-29T11:44:38.666Z,31.20
2018-06-29T11:47:07.334Z,29.80
2018-06-29T11:49:36.009Z,29.50
2018-06-29T11:52:04.676Z,30.10
2018-06-29T11:54:33.354Z,30.20
2018-06-29T11:57:02.012Z,31.10
2018-06-29T11:59:30.712Z,30.70
2018-06-29T12:01:59.351Z,32.70
2018-06-29T12:04:27.979Z,33.30
2018-06-29T12:06:56.651Z,33.10
2018-06-29T12:09:25.333Z,31.70
2018-06-29T12:11:53.972Z,33.10
2018-06-29T12:14:22.647Z,32.20
2018-06-29T12:16:51.338Z,32.50
2018-06-29T12:19:20.023Z,31.10
2018-06-29T12:21:48.662Z,32.20
2018-06-29T12:24:17.317Z,33.20
2018-06-29T12:26:45.993Z,34.30
2018-06-29T12:29:14.714Z,34.00
2018-06-29T12:31:43.471Z,34.30
2018-06-29T12:34:12.107Z,35.00
2018-06-29T12:36:40.761Z,36.90
2018-06-29T12:39:09.642Z,35.00
2018-06-29T12:41:39.184Z,33.60
2018-06-29T12:44:07.976Z,34.80
2018-06-29T12:46:36.638Z,35.80
2018-06-29T12:49:05.369Z,35.30
2018-06-29T12:51:34.056Z,34.30
2018-06-29T12:54:02.693Z,34.10
2018-06-29T12:56:31.377Z,34.30
2018-06-29T12:59:00.151Z,35.00
2018-06-29T13:01:28.821Z,34.40
2018-06-29T13:03:57.502Z,34.80
2018-06-29T13:06:26.174Z,35.00
2018-06-29T13:08:54.868Z,36.50
2018-06-29T13:11:23.561Z,35.80
2018-06-29T13:13:52.233Z,35.80
2018-06-29T13:16:20.926Z,34.50
2018-06-29T13:18:49.633Z,34.60
2018-06-29T13:21:18.323Z,35.10
2018-06-29T13:23:46.993Z,34.60
2018-06-29T13:26:15.721Z,34.20
2018-06-29T13:28:44.347Z,34.50
2018-06-29T13:31:13.002Z,34.70
2018-06-29T13:33:41.706Z,35.00
2018-06-29T13:36:10.403Z,34.00
2018-06-29T13:38:39.198Z,34.10
2018-06-29T13:41:07.845Z,36.80
2018-06-29T13:43:36.510Z,34.00
2018-06-29T13:46:05.213Z,33.80
2018-06-29T13:48:33.894Z,34.10
2018-06-29T13:51:02.567Z,34.00
2018-06-29T13:53:31.380Z,33.80
2018-06-29T13:56:00.058Z,33.90
2018-06-29T13:58:28.721Z,33.10
2018-06-29T14:00:57.423Z,34.20
2018-06-29T14:03:26.069Z,33.90
2018-06-29T14:05:54.715Z,34.30
2018-06-29T14:08:23.381Z,33.70
2018-06-29T14:10:52.074Z,34.30
2018-06-29T14:13:20.786Z,33.30
2018-06-29T14:15:49.420Z,33.80
2018-06-29T14:18:18.076Z,33.90
2018-06-29T14:20:46.714Z,33.10
2018-06-29T14:23:15.342Z,32.30
2018-06-29T14:28:12.249Z,33.40
2018-06-29T14:30:40.852Z,31.30
2018-06-29T14:33:09.506Z,31.90
2018-06-29T14:35:38.213Z,31.30
2018-06-29T14:38:06.913Z,31.50
2018-06-29T14:40:35.557Z,31.90
2018-06-29T14:43:04.158Z,33.20
2018-06-29T14:45:32.795Z,32.20
2018-06-29T14:48:01.444Z,31.30
2018-06-29T14:50:30.105Z,30.50
2018-06-29T14:52:58.691Z,29.60
2018-06-29T14:55:27.355Z,29.90
2018-06-29T14:57:55.990Z,29.80
2018-06-29T15:00:24.593Z,29.30
2018-06-29T15:02:53.240Z,28.60
2018-06-29T15:05:21.865Z,29.30
2018-06-29T15:07:50.490Z,28.60
2018-06-29T15:10:19.204Z,28.50
2018-06-29T15:12:47.835Z,28.30
2018-06-29T15:15:16.509Z,28.80
2018-06-29T15:17:45.174Z,27.30
2018-06-29T15:20:13.803Z,27.60
2018-06-29T15:22:42.443Z,27.30
2018-06-29T15:25:11.072Z,27.20
2018-06-29T15:27:39.842Z,27.60
2018-06-29T15:30:08.553Z,28.30
2018-06-29T15:32:37.154Z,26.90
2018-06-29T15:35:05.993Z,27.30
2018-06-29T15:37:34.654Z,26.70
2018-06-29T15:40:03.248Z,26.90
2018-06-29T15:42:31.891Z,26.40
2018-06-29T15:45:00.551Z,26.90
2018-06-29T15:47:29.161Z,26.70
2018-06-29T15:49:57.786Z,27.90
2018-06-29T15:52:26.434Z,26.60
2018-06-29T15:54:55.100Z,27.50
2018-06-29T15:57:23.735Z,26.70
2018-06-29T15:59:52.340Z,26.70
2018-06-29T16:02:20.978Z,27.00
2018-06-29T16:04:49.570Z,27.20
2018-06-29T16:07:18.210Z,26.50
2018-06-29T16:09:46.822Z,27.30
2018-06-29T16:12:15.499Z,26.90
2018-06-29T16:14:44.111Z,28.30
2018-06-29T16:17:12.754Z,27.50
2018-06-29T16:19:41.515Z,27.90
2018-06-29T16:22:10.196Z,28.10
2018-06-29T16:24:38.911Z,28.20
2018-06-29T16:27:07.611Z,28.20
2018-06-29T16:29:36.300Z,28.80
2018-06-29T16:32:04.978Z,29.00
2018-06-29T16:34:33.647Z,28.80
2018-06-29T16:37:02.282Z,28.30
2018-06-29T16:39:30.984Z,28.90
2018-06-29T16:41:59.637Z,28.30
2018-06-29T16:44:28.315Z,28.70
2018-06-29T16:46:56.968Z,28.70
2018-06-29T16:49:25.657Z,28.70
2018-06-29T16:51:54.313Z,29.30
2018-06-29T16:54:23.008Z,29.00
2018-06-29T16:56:51.854Z,29.20
2018-06-29T16:59:20.536Z,29.60
2018-06-29T17:01:49.333Z,30.60
2018-06-29T17:04:17.976Z,29.80
2018-06-29T17:06:46.649Z,29.90
2018-06-29T17:09:15.293Z,30.50
2018-06-29T17:11:43.975Z,31.60
2018-06-29T17:14:12.609Z,31.30
2018-06-29T17:16:41.253Z,32.00
2018-06-29T17:19:09.934Z,32.00
2018-06-29T17:21:38.711Z,33.00
2018-06-29T17:24:07.357Z,33.30
2018-06-29T17:26:35.997Z,34.40
2018-06-29T17:29:04.744Z,34.10
2018-06-29T17:31:33.382Z,35.30
2018-06-29T17:34:02.136Z,35.30
2018-06-29T17:36:30.685Z,35.90
2018-06-29T17:38:59.385Z,36.60
2018-06-29T17:41:28.021Z,36.60
2018-06-29T17:43:56.766Z,37.60
2018-06-29T17:46:25.462Z,37.80
2018-06-29T17:48:54.122Z,38.70
2018-06-29T17:51:22.831Z,38.40
2018-06-29T17:53:51.454Z,38.40
2018-06-29T17:56:20.074Z,39.20
2018-06-29T17:58:48.723Z,40.50
2018-06-29T18:01:17.355Z,39.60
2018-06-29T18:03:45.957Z,40.40
2018-06-29T18:06:14.704Z,40.30
2018-06-29T18:08:43.317Z,40.20
2018-06-29T18:12:41.754Z,40.70
2018-06-29T18:15:10.310Z,42.20
2018-06-29T18:17:39.123Z,42.40
2018-06-29T18:20:07.839Z,42.60
2018-06-29T18:22:36.774Z,43.10
2018-06-29T18:25:05.644Z,43.40
2018-06-29T18:27:34.235Z,43.90
2018-06-29T18:30:02.920Z,44.60
2018-06-29T18:32:31.605Z,45.20
2018-06-29T18:35:00.301Z,45.70
2018-06-29T18:37:28.922Z,46.60
2018-06-29T18:39:57.558Z,46.10
2018-06-29T18:42:33.002Z,47.50
2018-06-29T18:45:01.717Z,48.30
2018-06-29T18:47:30.375Z,48.10
2018-06-29T18:49:59.012Z,48.60
2018-06-29T18:52:27.691Z,48.10
2018-06-29T18:54:56.388Z,48.30
2018-06-29T18:57:25.059Z,48.80
2018-06-29T18:59:53.736Z,48.90
2018-06-29T19:02:22.447Z,49.80
2018-06-29T19:04:51.124Z,49.80
2018-06-29T19:07:19.797Z,50.30
2018-06-29T19:09:48.473Z,51.40
2018-06-29T19:12:17.154Z,51.20
2018-06-29T19:14:45.781Z,52.50
2018-06-29T19:17:14.481Z,53.30
2018-06-29T19:19:43.178Z,52.70
2018-06-29T19:22:11.873Z,53.40
2018-06-29T19:24:40.506Z,53.20
2018-06-29T19:27:09.194Z,54.10
2018-06-29T19:29:37.883Z,54.80
2018-06-29T19:32:06.601Z,55.40
2018-06-29T19:34:35.277Z,56.50
2018-06-29T19:37:04.002Z,56.30
2018-06-29T19:39:32.679Z,56.60
2018-06-29T19:42:01.329Z,56.30
2018-06-29T19:44:30.090Z,57.00
2018-06-29T19:46:58.705Z,57.50
2018-06-29T19:49:27.354Z,58.80
2018-06-29T19:51:56.029Z,58.60
2018-06-29T19:54:24.667Z,59.50
2018-06-29T19:56:53.357Z,59.90
2018-06-29T19:59:22.014Z,60.90
2018-06-29T20:01:50.702Z,61.00
2018-06-29T20:04:19.365Z,63.50
2018-06-29T20:06:48.064Z,61.30
2018-06-29T20:09:16.783Z,61.80
2018-06-29T20:11:45.430Z,62.20
2018-06-29T20:14:15.808Z,63.30
2018-06-29T20:16:44.689Z,62.60
2018-06-29T20:19:13.406Z,64.50
2018-06-29T20:21:42.330Z,65.30
2018-06-29T20:24:11.041Z,65.50
2018-06-29T20:26:39.747Z,65.60
2018-06-29T20:29:08.447Z,66.30
2018-06-29T20:31:37.230Z,67.10
2018-06-29T20:34:05.872Z,67.00
2018-06-29T20:36:34.529Z,68.40
2018-06-29T20:39:03.321Z,68.70
2018-06-29T20:41:31.985Z,69.50
2018-06-29T20:44:00.647Z,70.50
2018-06-29T20:46:29.311Z,71.60
2018-06-29T20:48:58.083Z,72.00
2018-06-29T20:51:26.706Z,73.00
2018-06-29T20:53:55.446Z,73.40
2018-06-29T20:56:24.074Z,73.70
2018-06-29T20:58:52.952Z,73.60
2018-06-29T21:01:21.626Z,74.40
2018-06-29T21:03:50.294Z,74.60
2018-06-29T21:06:18.979Z,74.80
2018-06-29T21:08:47.617Z,75.00
2018-06-29T21:11:16.259Z,75.90
2018-06-29T21:13:44.953Z,76.30
2018-06-29T21:16:13.611Z,76.90
2018-06-29T21:18:42.301Z,77.30
2018-06-29T21:21:10.948Z,77.20
2018-06-29T21:23:39.949Z,77.70
2018-06-29T21:26:08.611Z,75.50
2018-06-29T21:28:37.314Z,76.00
2018-06-29T21:31:06.112Z,76.50
2018-06-29T21:33:34.746Z,76.30
2018-06-29T21:36:03.502Z,76.30
2018-06-29T21:38:32.171Z,76.80
2018-06-29T21:41:00.843Z,76.40
2018-06-29T21:43:29.521Z,76.50
2018-06-29T21:45:58.202Z,76.50
2018-06-29T21:48:26.893Z,76.90
2018-06-29T21:50:55.546Z,77.00
2018-06-29T21:53:24.213Z,77.10
2018-06-29T21:55:52.857Z,77.40
2018-06-29T21:58:21.501Z,77.70
2018-06-29T22:00:50.164Z,77.10
2018-06-29T22:03:18.802Z,77.70
2018-06-29T22:05:47.413Z,77.40
2018-06-29T22:08:16.051Z,77.40
2018-06-29T22:10:44.701Z,78.40
2018-06-29T22:13:13.337Z,77.60
2018-06-29T22:15:41.978Z,76.70
2018-06-29T22:18:10.610Z,77.10
2018-06-29T22:20:39.317Z,78.10
2018-06-29T22:23:08.017Z,77.50
2018-06-29T22:25:36.658Z,77.30
2018-06-29T22:28:05.438Z,78.10
2018-06-29T22:30:34.148Z,77.70
2018-06-29T22:33:02.790Z,78.60
2018-06-29T22:35:31.401Z,78.70
2018-06-29T22:38:00.066Z,79.40
2018-06-29T22:40:28.713Z,79.70
2018-06-29T22:42:57.359Z,80.40
2018-06-29T22:45:25.968Z,81.00
2018-06-29T22:47:54.653Z,81.30
2018-06-29T22:50:23.252Z,81.60
2018-06-29T22:52:51.857Z,82.10
2018-06-29T22:55:20.529Z,82.60
2018-06-29T22:57:49.135Z,82.50
2018-06-29T23:00:17.781Z,82.80
2018-06-29T23:02:46.383Z,83.10
2018-06-29T23:05:14.995Z,84.00
2018-06-29T23:07:43.622Z,83.60
2018-06-29T23:10:12.259Z,83.80
2018-06-29T23:12:41.026Z,83.90
2018-06-29T23:15:09.650Z,84.00
2018-06-29T23:17:38.349Z,84.30
2018-06-29T23:20:06.987Z,84.30
2018-06-29T23:22:35.690Z,84.70
2018-06-29T23:25:04.384Z,84.70
2018-06-29T23:27:33.102Z,85.10
2018-06-29T23:30:01.824Z,85.40
2018-06-29T23:32:30.461Z,85.40
2018-06-29T23:34:59.157Z,86.00
2018-06-29T23:37:27.842Z,86.20
2018-06-29T23:39:56.769Z,86.30
2018-06-29T23:42:25.426Z,86.00
2018-06-29T23:44:54.128Z,86.20
2018-06-29T23:47:22.862Z,86.40
2018-06-29T23:49:51.540Z,86.00
2018-06-29T23:52:20.208Z,86.60
2018-06-29T23:54:48.849Z,86.70
2018-06-29T23:57:17.947Z,87.20
2018-06-29T23:59:46.546Z,87.50
